sensor_id;sensor_type;location;lat;lon;timestamp;P1;durP1;ratioP1;P2;durP2;ratioP2
32200;SDS011;18701;45.588;5.288;2022-08-19T00:00:23;3.67;;;2.30;;
32200;SDS011;18701;45.588;5.288;2022-08-19T00:02:49;7.22;;;2.22;;
32200;SDS011;18701;45.588;5.288;2022-08-19T00:05:15;3.30;;;2.55;;
32200;SDS011;18701;45.588;5.288;2022-08-19T00:07:41;4.20;;;2.40;;
32200;SDS011;18701;45.588;5.288;2022-08-19T00:10:08;3.05;;;2.33;;
32200;SDS011;18701;45.588;5.288;2022-08-19T00:12:36;2.95;;;2.53;;
32200;SDS011;18701;45.588;5.288;2022-08-19T00:15:06;3.05;;;2.75;;
32200;SDS011;18701;45.588;5.288;2022-08-19T00:17:37;5.95;;;2.83;;
32200;SDS011;18701;45.588;5.288;2022-08-19T00:20:05;5.43;;;2.85;;
32200;SDS011;18701;45.588;5.288;2022-08-19T00:22:32;2.60;;;2.40;;
32200;SDS011;18701;45.588;5.288;2022-08-19T00:24:58;3.63;;;3.33;;
32200;SDS011;18701;45.588;5.288;2022-08-19T00:27:24;3.47;;;3.00;;
32200;SDS011;18701;45.588;5.288;2022-08-19T00:29:50;3.65;;;3.35;;
32200;SDS011;18701;45.588;5.288;2022-08-19T00:32:16;2.90;;;2.70;;
32200;SDS011;18701;45.588;5.288;2022-08-19T00:34:42;3.28;;;3.03;;
32200;SDS011;18701;45.588;5.288;2022-08-19T00:37:08;3.22;;;2.92;;
32200;SDS011;18701;45.588;5.288;2022-08-19T00:39:34;2.90;;;2.70;;
32200;SDS011;18701;45.588;5.288;2022-08-19T00:42:00;4.30;;;2.80;;
32200;SDS011;18701;45.588;5.288;2022-08-19T00:44:27;3.47;;;2.95;;
32200;SDS011;18701;45.588;5.288;2022-08-19T00:46:54;4.45;;;3.25;;
32200;SDS011;18701;45.588;5.288;2022-08-19T00:51:51;7.70;;;3.47;;
32200;SDS011;18701;45.588;5.288;2022-08-19T00:54:21;4.35;;;3.70;;
32200;SDS011;18701;45.588;5.288;2022-08-19T00:56:47;3.63;;;3.33;;
32200;SDS011;18701;45.588;5.288;2022-08-19T00:59:15;5.32;;;3.28;;
32200;SDS011;18701;45.588;5.288;2022-08-19T01:01:43;5.13;;;3.10;;
32200;SDS011;18701;45.588;5.288;2022-08-19T01:04:10;6.55;;;3.83;;
32200;SDS011;18701;45.588;5.288;2022-08-19T01:06:36;5.53;;;3.83;;
32200;SDS011;18701;45.588;5.288;2022-08-19T01:09:06;6.10;;;4.22;;
32200;SDS011;18701;45.588;5.288;2022-08-19T01:11:34;4.57;;;4.18;;
32200;SDS011;18701;45.588;5.288;2022-08-19T01:14:05;7.88;;;4.65;;
32200;SDS011;18701;45.588;5.288;2022-08-19T01:16:32;5.82;;;4.10;;
32200;SDS011;18701;45.588;5.288;2022-08-19T01:18:58;4.60;;;4.20;;
32200;SDS011;18701;45.588;5.288;2022-08-19T01:24:04;5.80;;;4.97;;
32200;SDS011;18701;45.588;5.288;2022-08-19T01:26:30;10.85;;;5.70;;
32200;SDS011;18701;45.588;5.288;2022-08-19T01:28:57;5.72;;;5.05;;
32200;SDS011;18701;45.588;5.288;2022-08-19T01:31:24;8.60;;;5.63;;
32200;SDS011;18701;45.588;5.288;2022-08-19T01:33:55;6.32;;;4.57;;
32200;SDS011;18701;45.588;5.288;2022-08-19T01:36:32;7.40;;;5.78;;
32200;SDS011;18701;45.588;5.288;2022-08-19T01:39:02;5.35;;;4.30;;
32200;SDS011;18701;45.588;5.288;2022-08-19T01:41:33;5.45;;;4.93;;
32200;SDS011;18701;45.588;5.288;2022-08-19T01:44:01;4.75;;;4.13;;
32200;SDS011;18701;45.588;5.288;2022-08-19T01:46:29;5.90;;;3.80;;
32200;SDS011;18701;45.588;5.288;2022-08-19T01:48:56;4.30;;;3.92;;
32200;SDS011;18701;45.588;5.288;2022-08-19T01:51:21;4.40;;;4.10;;
32200;SDS011;18701;45.588;5.288;2022-08-19T01:53:47;5.68;;;4.35;;
32200;SDS011;18701;45.588;5.288;2022-08-19T01:56:14;6.82;;;4.40;;
32200;SDS011;18701;45.588;5.288;2022-08-19T01:58:42;5.03;;;4.60;;
32200;SDS011;18701;45.588;5.288;2022-08-19T02:01:16;5.30;;;4.50;;
32200;SDS011;18701;45.588;5.288;2022-08-19T02:03:42;4.68;;;4.32;;
32200;SDS011;18701;45.588;5.288;2022-08-19T02:06:07;5.00;;;3.92;;
32200;SDS011;18701;45.588;5.288;2022-08-19T02:08:37;5.05;;;3.92;;
32200;SDS011;18701;45.588;5.288;2022-08-19T02:11:04;4.15;;;3.70;;
32200;SDS011;18701;45.588;5.288;2022-08-19T02:13:30;8.38;;;4.35;;
32200;SDS011;18701;45.588;5.288;2022-08-19T02:15:57;4.60;;;4.13;;
32200;SDS011;18701;45.588;5.288;2022-08-19T02:18:22;5.20;;;4.55;;
32200;SDS011;18701;45.588;5.288;2022-08-19T02:20:48;8.48;;;4.15;;
32200;SDS011;18701;45.588;5.288;2022-08-19T02:23:15;5.03;;;4.30;;
32200;SDS011;18701;45.588;5.288;2022-08-19T02:25:42;4.72;;;4.22;;
32200;SDS011;18701;45.588;5.288;2022-08-19T02:28:12;4.70;;;4.10;;
32200;SDS011;18701;45.588;5.288;2022-08-19T02:30:38;5.40;;;4.53;;
32200;SDS011;18701;45.588;5.288;2022-08-19T02:33:06;4.82;;;3.83;;
32200;SDS011;18701;45.588;5.288;2022-08-19T02:35:31;8.13;;;4.13;;
32200;SDS011;18701;45.588;5.288;2022-08-19T02:37:57;6.28;;;4.55;;
32200;SDS011;18701;45.588;5.288;2022-08-19T02:40:47;5.43;;;4.70;;
32200;SDS011;18701;45.588;5.288;2022-08-19T02:43:15;8.80;;;4.07;;
32200;SDS011;18701;45.588;5.288;2022-08-19T02:45:41;4.88;;;4.40;;
32200;SDS011;18701;45.588;5.288;2022-08-19T02:48:07;5.05;;;4.55;;
32200;SDS011;18701;45.588;5.288;2022-08-19T02:50:39;7.75;;;3.75;;
32200;SDS011;18701;45.588;5.288;2022-08-19T02:53:05;5.07;;;4.22;;
32200;SDS011;18701;45.588;5.288;2022-08-19T02:55:33;3.90;;;3.60;;
32200;SDS011;18701;45.588;5.288;2022-08-19T02:58:07;4.43;;;3.97;;
32200;SDS011;18701;45.588;5.288;2022-08-19T03:00:33;6.13;;;3.58;;
32200;SDS011;18701;45.588;5.288;2022-08-19T03:03:07;5.05;;;3.75;;
32200;SDS011;18701;45.588;5.288;2022-08-19T03:05:32;5.72;;;3.67;;
32200;SDS011;18701;45.588;5.288;2022-08-19T03:08:01;4.28;;;3.53;;
32200;SDS011;18701;45.588;5.288;2022-08-19T03:10:28;5.57;;;3.25;;
32200;SDS011;18701;45.588;5.288;2022-08-19T03:12:54;6.03;;;3.45;;
32200;SDS011;18701;45.588;5.288;2022-08-19T03:15:19;4.20;;;3.47;;
32200;SDS011;18701;45.588;5.288;2022-08-19T03:17:45;3.58;;;3.28;;
32200;SDS011;18701;45.588;5.288;2022-08-19T03:20:10;4.13;;;3.50;;
32200;SDS011;18701;45.588;5.288;2022-08-19T03:22:36;3.72;;;3.42;;
32200;SDS011;18701;45.588;5.288;2022-08-19T03:25:02;4.80;;;4.30;;
32200;SDS011;18701;45.588;5.288;2022-08-19T03:27:28;8.93;;;4.18;;
32200;SDS011;18701;45.588;5.288;2022-08-19T03:29:54;5.18;;;3.97;;
32200;SDS011;18701;45.588;5.288;2022-08-19T03:32:20;3.40;;;2.88;;
32200;SDS011;18701;45.588;5.288;2022-08-19T03:34:46;5.13;;;3.80;;
32200;SDS011;18701;45.588;5.288;2022-08-19T03:37:13;5.03;;;4.45;;
32200;SDS011;18701;45.588;5.288;2022-08-19T03:39:40;4.70;;;3.38;;
32200;SDS011;18701;45.588;5.288;2022-08-19T03:42:07;5.35;;;3.30;;
32200;SDS011;18701;45.588;5.288;2022-08-19T03:44:33;6.32;;;3.20;;
32200;SDS011;18701;45.588;5.288;2022-08-19T03:47:01;5.43;;;3.08;;
32200;SDS011;18701;45.588;5.288;2022-08-19T03:49:29;4.88;;;3.97;;
32200;SDS011;18701;45.588;5.288;2022-08-19T03:51:58;4.75;;;3.30;;
32200;SDS011;18701;45.588;5.288;2022-08-19T03:54:26;3.78;;;3.50;;
32200;SDS011;18701;45.588;5.288;2022-08-19T03:56:53;7.35;;;4.03;;
32200;SDS011;18701;45.588;5.288;2022-08-19T03:59:21;6.32;;;3.33;;
32200;SDS011;18701;45.588;5.288;2022-08-19T04:01:55;4.65;;;3.38;;
32200;SDS011;18701;45.588;5.288;2022-08-19T04:04:23;5.30;;;3.72;;
32200;SDS011;18701;45.588;5.288;2022-08-19T04:06:50;5.80;;;3.83;;
32200;SDS011;18701;45.588;5.288;2022-08-19T04:09:16;7.38;;;3.55;;
32200;SDS011;18701;45.588;5.288;2022-08-19T04:11:45;8.02;;;3.70;;
32200;SDS011;18701;45.588;5.288;2022-08-19T04:14:14;4.28;;;3.67;;
32200;SDS011;18701;45.588;5.288;2022-08-19T04:16:43;5.53;;;3.75;;
32200;SDS011;18701;45.588;5.288;2022-08-19T04:19:11;9.35;;;4.25;;
32200;SDS011;18701;45.588;5.288;2022-08-19T04:21:37;4.07;;;3.72;;
32200;SDS011;18701;45.588;5.288;2022-08-19T04:24:06;7.22;;;3.88;;
32200;SDS011;18701;45.588;5.288;2022-08-19T04:26:35;4.10;;;3.67;;
32200;SDS011;18701;45.588;5.288;2022-08-19T04:29:04;6.22;;;3.90;;
32200;SDS011;18701;45.588;5.288;2022-08-19T04:34:03;4.57;;;4.10;;
32200;SDS011;18701;45.588;5.288;2022-08-19T04:36:32;6.85;;;3.55;;
32200;SDS011;18701;45.588;5.288;2022-08-19T04:39:01;4.85;;;4.25;;
32200;SDS011;18701;45.588;5.288;2022-08-19T04:41:32;4.53;;;3.78;;
32200;SDS011;18701;45.588;5.288;2022-08-19T04:44:16;5.78;;;4.30;;
32200;SDS011;18701;45.588;5.288;2022-08-19T04:46:43;5.65;;;4.70;;
32200;SDS011;18701;45.588;5.288;2022-08-19T04:49:10;5.28;;;4.15;;
32200;SDS011;18701;45.588;5.288;2022-08-19T04:51:36;4.30;;;4.00;;
32200;SDS011;18701;45.588;5.288;2022-08-19T04:54:05;10.23;;;4.22;;
32200;SDS011;18701;45.588;5.288;2022-08-19T04:56:30;4.72;;;4.30;;
32200;SDS011;18701;45.588;5.288;2022-08-19T04:58:56;5.65;;;4.60;;
32200;SDS011;18701;45.588;5.288;2022-08-19T05:01:26;5.53;;;3.97;;
32200;SDS011;18701;45.588;5.288;2022-08-19T05:03:57;5.60;;;4.30;;
32200;SDS011;18701;45.588;5.288;2022-08-19T05:06:26;4.95;;;4.40;;
32200;SDS011;18701;45.588;5.288;2022-08-19T05:08:53;4.50;;;4.13;;
32200;SDS011;18701;45.588;5.288;2022-08-19T05:11:20;8.63;;;4.28;;
32200;SDS011;18701;45.588;5.288;2022-08-19T05:13:49;10.45;;;4.32;;
32200;SDS011;18701;45.588;5.288;2022-08-19T05:16:16;9.75;;;4.53;;
32200;SDS011;18701;45.588;5.288;2022-08-19T05:18:44;5.32;;;4.72;;
32200;SDS011;18701;45.588;5.288;2022-08-19T05:21:29;7.85;;;4.30;;
32200;SDS011;18701;45.588;5.288;2022-08-19T05:24:14;7.38;;;3.75;;
32200;SDS011;18701;45.588;5.288;2022-08-19T05:26:42;9.00;;;4.35;;
32200;SDS011;18701;45.588;5.288;2022-08-19T05:29:11;4.65;;;4.22;;
32200;SDS011;18701;45.588;5.288;2022-08-19T05:31:38;5.50;;;4.22;;
32200;SDS011;18701;45.588;5.288;2022-08-19T05:34:05;7.38;;;4.13;;
32200;SDS011;18701;45.588;5.288;2022-08-19T05:36:41;5.07;;;4.45;;
32200;SDS011;18701;45.588;5.288;2022-08-19T05:39:10;4.80;;;4.13;;
32200;SDS011;18701;45.588;5.288;2022-08-19T05:41:43;5.88;;;4.60;;
32200;SDS011;18701;45.588;5.288;2022-08-19T05:46:40;7.25;;;4.68;;
32200;SDS011;18701;45.588;5.288;2022-08-19T05:49:08;7.00;;;4.68;;
32200;SDS011;18701;45.588;5.288;2022-08-19T05:51:36;9.77;;;5.20;;
32200;SDS011;18701;45.588;5.288;2022-08-19T05:54:03;7.30;;;5.35;;
32200;SDS011;18701;45.588;5.288;2022-08-19T05:56:30;8.07;;;5.30;;
32200;SDS011;18701;45.588;5.288;2022-08-19T05:58:57;6.80;;;4.93;;
32200;SDS011;18701;45.588;5.288;2022-08-19T06:01:23;7.90;;;4.47;;
32200;SDS011;18701;45.588;5.288;2022-08-19T06:03:50;6.05;;;4.57;;
32200;SDS011;18701;45.588;5.288;2022-08-19T06:06:16;6.55;;;4.80;;
32200;SDS011;18701;45.588;5.288;2022-08-19T06:08:43;7.88;;;5.20;;
32200;SDS011;18701;45.588;5.288;2022-08-19T06:13:42;5.35;;;4.85;;
32200;SDS011;18701;45.588;5.288;2022-08-19T06:16:09;5.28;;;4.78;;
32200;SDS011;18701;45.588;5.288;2022-08-19T06:18:35;5.50;;;5.03;;
32200;SDS011;18701;45.588;5.288;2022-08-19T06:21:01;5.20;;;4.38;;
32200;SDS011;18701;45.588;5.288;2022-08-19T06:23:28;7.90;;;4.68;;
32200;SDS011;18701;45.588;5.288;2022-08-19T06:25:55;8.18;;;4.05;;
32200;SDS011;18701;45.588;5.288;2022-08-19T06:28:20;8.45;;;4.97;;
32200;SDS011;18701;45.588;5.288;2022-08-19T06:30:47;6.40;;;5.00;;
32200;SDS011;18701;45.588;5.288;2022-08-19T06:33:13;11.63;;;5.60;;
32200;SDS011;18701;45.588;5.288;2022-08-19T06:35:39;7.10;;;5.38;;
32200;SDS011;18701;45.588;5.288;2022-08-19T06:38:06;6.63;;;5.18;;
32200;SDS011;18701;45.588;5.288;2022-08-19T06:40:32;6.00;;;5.25;;
32200;SDS011;18701;45.588;5.288;2022-08-19T06:42:57;6.22;;;5.10;;
32200;SDS011;18701;45.588;5.288;2022-08-19T06:45:24;5.68;;;5.18;;
32200;SDS011;18701;45.588;5.288;2022-08-19T06:47:51;8.63;;;5.13;;
32200;SDS011;18701;45.588;5.288;2022-08-19T06:50:19;5.68;;;4.43;;
32200;SDS011;18701;45.588;5.288;2022-08-19T06:52:44;7.03;;;4.53;;
32200;SDS011;18701;45.588;5.288;2022-08-19T06:55:11;6.93;;;4.82;;
32200;SDS011;18701;45.588;5.288;2022-08-19T06:57:37;9.38;;;5.00;;
32200;SDS011;18701;45.588;5.288;2022-08-19T07:00:04;6.85;;;5.10;;
32200;SDS011;18701;45.588;5.288;2022-08-19T07:02:35;6.65;;;5.05;;
32200;SDS011;18701;45.588;5.288;2022-08-19T07:05:02;7.47;;;4.10;;
32200;SDS011;18701;45.588;5.288;2022-08-19T07:07:29;5.47;;;4.28;;
32200;SDS011;18701;45.588;5.288;2022-08-19T07:09:56;9.45;;;5.03;;
32200;SDS011;18701;45.588;5.288;2022-08-19T07:12:21;4.80;;;4.30;;
32200;SDS011;18701;45.588;5.288;2022-08-19T07:14:47;5.63;;;5.10;;
32200;SDS011;18701;45.588;5.288;2022-08-19T07:17:14;5.20;;;4.70;;
32200;SDS011;18701;45.588;5.288;2022-08-19T07:19:40;11.10;;;5.43;;
32200;SDS011;18701;45.588;5.288;2022-08-19T07:22:07;5.70;;;5.18;;
32200;SDS011;18701;45.588;5.288;2022-08-19T07:24:34;7.13;;;5.03;;
32200;SDS011;18701;45.588;5.288;2022-08-19T07:27:01;11.80;;;6.03;;
32200;SDS011;18701;45.588;5.288;2022-08-19T07:29:32;9.32;;;5.68;;
32200;SDS011;18701;45.588;5.288;2022-08-19T07:31:59;8.48;;;5.18;;
32200;SDS011;18701;45.588;5.288;2022-08-19T07:34:26;5.53;;;4.97;;
32200;SDS011;18701;45.588;5.288;2022-08-19T07:36:54;7.63;;;4.88;;
32200;SDS011;18701;45.588;5.288;2022-08-19T07:39:24;8.93;;;5.43;;
32200;SDS011;18701;45.588;5.288;2022-08-19T07:41:53;5.32;;;4.75;;
32200;SDS011;18701;45.588;5.288;2022-08-19T07:44:20;5.82;;;4.90;;
32200;SDS011;18701;45.588;5.288;2022-08-19T07:46:48;7.25;;;4.82;;
32200;SDS011;18701;45.588;5.288;2022-08-19T07:49:17;6.10;;;5.30;;
32200;SDS011;18701;45.588;5.288;2022-08-19T07:52:06;8.70;;;5.30;;
32200;SDS011;18701;45.588;5.288;2022-08-19T07:54:37;6.95;;;5.40;;
32200;SDS011;18701;45.588;5.288;2022-08-19T07:57:04;5.80;;;5.22;;
32200;SDS011;18701;45.588;5.288;2022-08-19T07:59:33;6.38;;;5.50;;
32200;SDS011;18701;45.588;5.288;2022-08-19T08:02:01;6.43;;;5.72;;
32200;SDS011;18701;45.588;5.288;2022-08-19T08:04:28;11.38;;;6.57;;
32200;SDS011;18701;45.588;5.288;2022-08-19T08:07:14;10.63;;;6.60;;
32200;SDS011;18701;45.588;5.288;2022-08-19T08:12:25;10.40;;;5.93;;
32200;SDS011;18701;45.588;5.288;2022-08-19T08:14:59;6.35;;;5.72;;
32200;SDS011;18701;45.588;5.288;2022-08-19T08:17:32;6.68;;;5.60;;
32200;SDS011;18701;45.588;5.288;2022-08-19T08:20:03;8.00;;;5.50;;
32200;SDS011;18701;45.588;5.288;2022-08-19T08:22:31;10.40;;;6.65;;
32200;SDS011;18701;45.588;5.288;2022-08-19T08:25:18;8.13;;;6.15;;
32200;SDS011;18701;45.588;5.288;2022-08-19T08:27:49;11.07;;;6.38;;
32200;SDS011;18701;45.588;5.288;2022-08-19T08:30:16;7.65;;;6.03;;
32200;SDS011;18701;45.588;5.288;2022-08-19T08:32:47;8.80;;;6.60;;
32200;SDS011;18701;45.588;5.288;2022-08-19T08:35:14;9.88;;;7.43;;
32200;SDS011;18701;45.588;5.288;2022-08-19T08:37:44;9.00;;;6.97;;
32200;SDS011;18701;45.588;5.288;2022-08-19T08:43:01;10.52;;;6.88;;
32200;SDS011;18701;45.588;5.288;2022-08-19T08:51:14;9.02;;;7.20;;
32200;SDS011;18701;45.588;5.288;2022-08-19T08:53:44;8.48;;;7.25;;
32200;SDS011;18701;45.588;5.288;2022-08-19T08:56:11;9.70;;;7.70;;
32200;SDS011;18701;45.588;5.288;2022-08-19T09:01:12;14.57;;;8.20;;
32200;SDS011;18701;45.588;5.288;2022-08-19T09:03:39;12.82;;;9.77;;
32200;SDS011;18701;45.588;5.288;2022-08-19T09:06:16;14.45;;;8.18;;
32200;SDS011;18701;45.588;5.288;2022-08-19T09:12:31;14.40;;;8.77;;
32200;SDS011;18701;45.588;5.288;2022-08-19T09:15:04;12.85;;;8.63;;
32200;SDS011;18701;45.588;5.288;2022-08-19T09:17:34;12.30;;;9.07;;
32200;SDS011;18701;45.588;5.288;2022-08-19T09:20:02;9.90;;;8.30;;
32200;SDS011;18701;45.588;5.288;2022-08-19T09:22:39;9.77;;;8.60;;
32200;SDS011;18701;45.588;5.288;2022-08-19T09:25:10;11.18;;;9.50;;
32200;SDS011;18701;45.588;5.288;2022-08-19T09:27:39;14.20;;;8.90;;
32200;SDS011;18701;45.588;5.288;2022-08-19T09:30:07;13.10;;;9.82;;
32200;SDS011;18701;45.588;5.288;2022-08-19T09:32:34;13.45;;;10.23;;
32200;SDS011;18701;45.588;5.288;2022-08-19T09:35:00;12.38;;;9.05;;
32200;SDS011;18701;45.588;5.288;2022-08-19T09:37:26;15.18;;;10.45;;
32200;SDS011;18701;45.588;5.288;2022-08-19T09:39:52;11.13;;;9.43;;
32200;SDS011;18701;45.588;5.288;2022-08-19T09:42:18;12.55;;;8.52;;
32200;SDS011;18701;45.588;5.288;2022-08-19T09:44:44;12.43;;;10.07;;
32200;SDS011;18701;45.588;5.288;2022-08-19T09:47:11;13.15;;;9.43;;
32200;SDS011;18701;45.588;5.288;2022-08-19T09:49:38;11.00;;;9.48;;
32200;SDS011;18701;45.588;5.288;2022-08-19T09:52:10;11.10;;;10.00;;
32200;SDS011;18701;45.588;5.288;2022-08-19T09:54:37;13.98;;;10.95;;
32200;SDS011;18701;45.588;5.288;2022-08-19T09:57:06;11.57;;;10.38;;
32200;SDS011;18701;45.588;5.288;2022-08-19T09:59:31;10.77;;;8.70;;
32200;SDS011;18701;45.588;5.288;2022-08-19T10:01:57;15.65;;;10.13;;
32200;SDS011;18701;45.588;5.288;2022-08-19T10:04:23;12.10;;;8.95;;
32200;SDS011;18701;45.588;5.288;2022-08-19T10:07:08;10.90;;;9.80;;
32200;SDS011;18701;45.588;5.288;2022-08-19T10:09:37;11.52;;;9.98;;
32200;SDS011;18701;45.588;5.288;2022-08-19T10:12:03;13.82;;;9.30;;
32200;SDS011;18701;45.588;5.288;2022-08-19T10:14:32;10.93;;;9.68;;
32200;SDS011;18701;45.588;5.288;2022-08-19T10:16:58;11.82;;;9.77;;
32200;SDS011;18701;45.588;5.288;2022-08-19T10:19:25;13.73;;;9.80;;
32200;SDS011;18701;45.588;5.288;2022-08-19T10:21:57;11.05;;;9.93;;
32200;SDS011;18701;45.588;5.288;2022-08-19T10:24:23;14.43;;;9.90;;
32200;SDS011;18701;45.588;5.288;2022-08-19T10:26:50;11.43;;;10.23;;
32200;SDS011;18701;45.588;5.288;2022-08-19T10:29:16;14.57;;;10.18;;
32200;SDS011;18701;45.588;5.288;2022-08-19T10:31:42;12.02;;;10.50;;
32200;SDS011;18701;45.588;5.288;2022-08-19T10:34:08;11.63;;;10.20;;
32200;SDS011;18701;45.588;5.288;2022-08-19T10:36:37;14.40;;;10.55;;
32200;SDS011;18701;45.588;5.288;2022-08-19T10:39:05;15.55;;;11.02;;
32200;SDS011;18701;45.588;5.288;2022-08-19T10:41:34;12.65;;;10.68;;
32200;SDS011;18701;45.588;5.288;2022-08-19T10:44:03;14.02;;;11.55;;
32200;SDS011;18701;45.588;5.288;2022-08-19T10:46:31;15.13;;;11.65;;
32200;SDS011;18701;45.588;5.288;2022-08-19T10:48:58;15.93;;;11.80;;
32200;SDS011;18701;45.588;5.288;2022-08-19T10:51:24;15.18;;;11.82;;
32200;SDS011;18701;45.588;5.288;2022-08-19T10:54:08;18.25;;;12.20;;
32200;SDS011;18701;45.588;5.288;2022-08-19T10:56:34;14.05;;;11.15;;
32200;SDS011;18701;45.588;5.288;2022-08-19T11:01:52;16.67;;;12.25;;
32200;SDS011;18701;45.588;5.288;2022-08-19T11:04:19;16.85;;;11.65;;
32200;SDS011;18701;45.588;5.288;2022-08-19T11:06:48;14.55;;;10.93;;
32200;SDS011;18701;45.588;5.288;2022-08-19T11:09:15;14.70;;;11.45;;
32200;SDS011;18701;45.588;5.288;2022-08-19T11:11:43;13.27;;;11.05;;
32200;SDS011;18701;45.588;5.288;2022-08-19T11:14:13;14.77;;;10.73;;
32200;SDS011;18701;45.588;5.288;2022-08-19T11:16:40;14.10;;;10.80;;
32200;SDS011;18701;45.588;5.288;2022-08-19T11:19:07;14.27;;;10.93;;
32200;SDS011;18701;45.588;5.288;2022-08-19T11:21:36;15.27;;;11.30;;
32200;SDS011;18701;45.588;5.288;2022-08-19T11:24:08;13.38;;;10.18;;
32200;SDS011;18701;45.588;5.288;2022-08-19T11:26:36;11.70;;;10.15;;
32200;SDS011;18701;45.588;5.288;2022-08-19T11:29:03;15.63;;;9.98;;
32200;SDS011;18701;45.588;5.288;2022-08-19T11:31:31;13.55;;;9.45;;
32200;SDS011;18701;45.588;5.288;2022-08-19T11:34:01;13.85;;;9.80;;
32200;SDS011;18701;45.588;5.288;2022-08-19T11:36:32;12.68;;;9.85;;
32200;SDS011;18701;45.588;5.288;2022-08-19T11:39:03;15.60;;;11.35;;
32200;SDS011;18701;45.588;5.288;2022-08-19T11:41:30;13.43;;;10.13;;
32200;SDS011;18701;45.588;5.288;2022-08-19T11:43:55;13.75;;;10.48;;
32200;SDS011;18701;45.588;5.288;2022-08-19T11:46:22;12.50;;;10.75;;
32200;SDS011;18701;45.588;5.288;2022-08-19T11:48:49;15.95;;;11.23;;
32200;SDS011;18701;45.588;5.288;2022-08-19T11:51:17;14.45;;;10.25;;
32200;SDS011;18701;45.588;5.288;2022-08-19T11:53:45;13.90;;;10.32;;
32200;SDS011;18701;45.588;5.288;2022-08-19T11:56:11;19.25;;;11.40;;
32200;SDS011;18701;45.588;5.288;2022-08-19T11:58:37;15.15;;;11.57;;
32200;SDS011;18701;45.588;5.288;2022-08-19T12:01:10;15.13;;;11.40;;
32200;SDS011;18701;45.588;5.288;2022-08-19T12:03:39;13.32;;;10.73;;
32200;SDS011;18701;45.588;5.288;2022-08-19T12:06:06;13.70;;;11.10;;
32200;SDS011;18701;45.588;5.288;2022-08-19T12:08:38;18.58;;;10.82;;
32200;SDS011;18701;45.588;5.288;2022-08-19T12:11:08;19.50;;;11.77;;
32200;SDS011;18701;45.588;5.288;2022-08-19T12:13:35;17.27;;;11.25;;
32200;SDS011;18701;45.588;5.288;2022-08-19T12:16:06;13.20;;;11.05;;
32200;SDS011;18701;45.588;5.288;2022-08-19T12:18:36;17.55;;;11.98;;
32200;SDS011;18701;45.588;5.288;2022-08-19T12:21:02;13.95;;;10.80;;
32200;SDS011;18701;45.588;5.288;2022-08-19T12:23:28;16.08;;;11.05;;
32200;SDS011;18701;45.588;5.288;2022-08-19T12:25:54;16.42;;;11.00;;
32200;SDS011;18701;45.588;5.288;2022-08-19T12:28:22;14.55;;;11.23;;
32200;SDS011;18701;45.588;5.288;2022-08-19T12:30:48;15.07;;;11.05;;
32200;SDS011;18701;45.588;5.288;2022-08-19T12:33:18;14.00;;;10.15;;
32200;SDS011;18701;45.588;5.288;2022-08-19T12:35:45;17.02;;;11.25;;
32200;SDS011;18701;45.588;5.288;2022-08-19T12:38:11;15.38;;;10.13;;
32200;SDS011;18701;45.588;5.288;2022-08-19T12:40:38;13.85;;;10.55;;
32200;SDS011;18701;45.588;5.288;2022-08-19T12:43:05;14.98;;;9.68;;
32200;SDS011;18701;45.588;5.288;2022-08-19T12:45:31;13.23;;;9.75;;
32200;SDS011;18701;45.588;5.288;2022-08-19T12:47:57;12.30;;;9.80;;
32200;SDS011;18701;45.588;5.288;2022-08-19T12:50:23;10.90;;;9.10;;
32200;SDS011;18701;45.588;5.288;2022-08-19T12:52:49;12.07;;;9.82;;
32200;SDS011;18701;45.588;5.288;2022-08-19T12:55:15;12.68;;;9.13;;
32200;SDS011;18701;45.588;5.288;2022-08-19T12:57:41;10.77;;;9.00;;
32200;SDS011;18701;45.588;5.288;2022-08-19T13:00:11;9.35;;;8.20;;
32200;SDS011;18701;45.588;5.288;2022-08-19T13:02:40;10.60;;;9.18;;
32200;SDS011;18701;45.588;5.288;2022-08-19T13:05:09;9.13;;;8.10;;
32200;SDS011;18701;45.588;5.288;2022-08-19T13:07:37;13.93;;;8.98;;
32200;SDS011;18701;45.588;5.288;2022-08-19T13:10:05;11.32;;;8.13;;
32200;SDS011;18701;45.588;5.288;2022-08-19T13:12:33;10.27;;;8.52;;
32200;SDS011;18701;45.588;5.288;2022-08-19T13:15:01;11.73;;;7.78;;
32200;SDS011;18701;45.588;5.288;2022-08-19T13:17:27;11.45;;;7.20;;
32200;SDS011;18701;45.588;5.288;2022-08-19T13:19:53;12.52;;;8.23;;
32200;SDS011;18701;45.588;5.288;2022-08-19T13:22:19;8.20;;;7.00;;
32200;SDS011;18701;45.588;5.288;2022-08-19T13:24:44;8.63;;;7.15;;
32200;SDS011;18701;45.588;5.288;2022-08-19T13:27:10;14.45;;;8.35;;
32200;SDS011;18701;45.588;5.288;2022-08-19T13:29:36;15.15;;;7.78;;
32200;SDS011;18701;45.588;5.288;2022-08-19T13:32:20;8.43;;;7.63;;
32200;SDS011;18701;45.588;5.288;2022-08-19T13:35:04;12.88;;;7.60;;
32200;SDS011;18701;45.588;5.288;2022-08-19T13:37:30;11.45;;;7.70;;
32200;SDS011;18701;45.588;5.288;2022-08-19T13:42:41;10.55;;;7.68;;
32200;SDS011;18701;45.588;5.288;2022-08-19T13:45:08;13.38;;;7.63;;
32200;SDS011;18701;45.588;5.288;2022-08-19T13:47:35;7.63;;;6.88;;
32200;SDS011;18701;45.588;5.288;2022-08-19T13:50:07;8.32;;;7.00;;
32200;SDS011;18701;45.588;5.288;2022-08-19T13:52:34;6.93;;;6.28;;
32200;SDS011;18701;45.588;5.288;2022-08-19T13:55:00;9.80;;;6.78;;
32200;SDS011;18701;45.588;5.288;2022-08-19T13:57:25;9.25;;;6.93;;
32200;SDS011;18701;45.588;5.288;2022-08-19T13:59:51;8.52;;;6.30;;
32200;SDS011;18701;45.588;5.288;2022-08-19T14:02:16;7.75;;;6.22;;
32200;SDS011;18701;45.588;5.288;2022-08-19T14:04:42;6.55;;;5.85;;
32200;SDS011;18701;45.588;5.288;2022-08-19T14:07:08;10.77;;;8.07;;
32200;SDS011;18701;45.588;5.288;2022-08-19T14:09:34;8.25;;;5.93;;
32200;SDS011;18701;45.588;5.288;2022-08-19T14:12:00;6.72;;;5.47;;
32200;SDS011;18701;45.588;5.288;2022-08-19T14:14:25;7.35;;;4.97;;
32200;SDS011;18701;45.588;5.288;2022-08-19T14:16:51;6.22;;;5.43;;
32200;SDS011;18701;45.588;5.288;2022-08-19T14:19:17;6.90;;;5.25;;
32200;SDS011;18701;45.588;5.288;2022-08-19T14:21:42;5.65;;;4.47;;
32200;SDS011;18701;45.588;5.288;2022-08-19T14:24:08;6.38;;;4.18;;
32200;SDS011;18701;45.588;5.288;2022-08-19T14:26:37;4.75;;;4.00;;
32200;SDS011;18701;45.588;5.288;2022-08-19T14:29:03;6.30;;;4.18;;
32200;SDS011;18701;45.588;5.288;2022-08-19T14:31:32;6.57;;;4.20;;
32200;SDS011;18701;45.588;5.288;2022-08-19T14:33:57;4.18;;;3.67;;
32200;SDS011;18701;45.588;5.288;2022-08-19T14:36:23;5.72;;;3.50;;
32200;SDS011;18701;45.588;5.288;2022-08-19T14:38:48;5.35;;;3.70;;
32200;SDS011;18701;45.588;5.288;2022-08-19T14:41:19;5.03;;;3.60;;
32200;SDS011;18701;45.588;5.288;2022-08-19T14:43:47;3.78;;;3.30;;
32200;SDS011;18701;45.588;5.288;2022-08-19T14:46:15;5.50;;;3.88;;
32200;SDS011;18701;45.588;5.288;2022-08-19T14:48:47;4.00;;;3.25;;
32200;SDS011;18701;45.588;5.288;2022-08-19T14:51:14;6.47;;;3.03;;
32200;SDS011;18701;45.588;5.288;2022-08-19T14:53:40;5.30;;;3.63;;
32200;SDS011;18701;45.588;5.288;2022-08-19T14:56:10;4.10;;;3.70;;
32200;SDS011;18701;45.588;5.288;2022-08-19T14:58:41;3.50;;;3.15;;
32200;SDS011;18701;45.588;5.288;2022-08-19T15:01:08;3.75;;;3.15;;
32200;SDS011;18701;45.588;5.288;2022-08-19T15:03:34;5.18;;;2.97;;
32200;SDS011;18701;45.588;5.288;2022-08-19T15:06:02;3.30;;;2.65;;
32200;SDS011;18701;45.588;5.288;2022-08-19T15:08:30;4.68;;;3.60;;
32200;SDS011;18701;45.588;5.288;2022-08-19T15:10:56;2.65;;;2.45;;
32200;SDS011;18701;45.588;5.288;2022-08-19T15:13:24;5.80;;;2.50;;
32200;SDS011;18701;45.588;5.288;2022-08-19T15:15:51;3.80;;;2.63;;
32200;SDS011;18701;45.588;5.288;2022-08-19T15:18:18;7.78;;;2.28;;
32200;SDS011;18701;45.588;5.288;2022-08-19T15:20:45;4.00;;;2.50;;